sensor_id;sensor_type;location;lat;lon;timestamp;temperature;humidity
70068;DHT22;57425;51.616;6.680;2023-06-10T00:02:21;26.20;47.70
70068;DHT22;57425;51.616;6.680;2023-06-10T00:04:47;26.20;47.80
70068;DHT22;57425;51.616;6.680;2023-06-10T00:07:13;26.20;47.80
70068;DHT22;57425;51.616;6.680;2023-06-10T00:09:38;26.20;47.80
70068;DHT22;57425;51.616;6.680;2023-06-10T00:12:08;26.20;47.80
70068;DHT22;57425;51.616;6.680;2023-06-10T00:14:37;26.10;47.80
70068;DHT22;57425;51.616;6.680;2023-06-10T00:17:03;26.10;47.90
70068;DHT22;57425;51.616;6.680;2023-06-10T00:19:29;26.10;48.00
70068;DHT22;57425;51.616;6.680;2023-06-10T00:21:59;26.10;48.20
70068;DHT22;57425;51.616;6.680;2023-06-10T00:24:24;26.00;48.20
70068;DHT22;57425;51.616;6.680;2023-06-10T00:26:50;26.00;48.30
70068;DHT22;57425;51.616;6.680;2023-06-10T00:29:16;25.90;48.30
70068;DHT22;57425;51.616;6.680;2023-06-10T00:31:41;25.90;48.30
70068;DHT22;57425;51.616;6.680;2023-06-10T00:34:07;25.90;48.30
70068;DHT22;57425;51.616;6.680;2023-06-10T00:36:33;25.90;48.40
70068;DHT22;57425;51.616;6.680;2023-06-10T00:38:59;25.90;48.50
70068;DHT22;57425;51.616;6.680;2023-06-10T00:41:24;25.80;48.40
70068;DHT22;57425;51.616;6.680;2023-06-10T00:43:52;25.90;48.50
70068;DHT22;57425;51.616;6.680;2023-06-10T00:46:17;25.80;48.40
70068;DHT22;57425;51.616;6.680;2023-06-10T00:48:44;25.80;48.50
70068;DHT22;57425;51.616;6.680;2023-06-10T00:51:10;25.80;48.60
70068;DHT22;57425;51.616;6.680;2023-06-10T00:53:39;26.00;52.10
70068;DHT22;57425;51.616;6.680;2023-06-10T00:56:06;25.80;48.90
70068;DHT22;57425;51.616;6.680;2023-06-10T00:58:32;25.70;48.90
70068;DHT22;57425;51.616;6.680;2023-06-10T01:00:57;25.70;48.90
70068;DHT22;57425;51.616;6.680;2023-06-10T01:03:23;25.70;48.90
70068;DHT22;57425;51.616;6.680;2023-06-10T01:06:00;25.70;48.90
70068;DHT22;57425;51.616;6.680;2023-06-10T01:09:06;25.70;49.00
70068;DHT22;57425;51.616;6.680;2023-06-10T01:11:43;25.60;49.00
70068;DHT22;57425;51.616;6.680;2023-06-10T01:14:12;25.60;49.10
70068;DHT22;57425;51.616;6.680;2023-06-10T01:16:39;25.60;49.10
70068;DHT22;57425;51.616;6.680;2023-06-10T01:19:06;25.50;49.00
70068;DHT22;57425;51.616;6.680;2023-06-10T01:21:33;25.50;49.10
70068;DHT22;57425;51.616;6.680;2023-06-10T01:23:58;25.50;49.10
70068;DHT22;57425;51.616;6.680;2023-06-10T01:26:29;25.50;49.20
70068;DHT22;57425;51.616;6.680;2023-06-10T01:32:11;25.50;49.30
70068;DHT22;57425;51.616;6.680;2023-06-10T01:34:38;25.40;49.20
70068;DHT22;57425;51.616;6.680;2023-06-10T01:37:05;25.40;49.30
70068;DHT22;57425;51.616;6.680;2023-06-10T01:39:32;25.40;49.30
70068;DHT22;57425;51.616;6.680;2023-06-10T01:41:58;25.40;49.40
70068;DHT22;57425;51.616;6.680;2023-06-10T01:44:24;25.40;49.40
70068;DHT22;57425;51.616;6.680;2023-06-10T01:46:50;25.40;49.40
70068;DHT22;57425;51.616;6.680;2023-06-10T01:49:15;25.30;49.40
70068;DHT22;57425;51.616;6.680;2023-06-10T01:51:41;25.30;49.50
70068;DHT22;57425;51.616;6.680;2023-06-10T01:54:07;25.30;66.10
70068;DHT22;57425;51.616;6.680;2023-06-10T01:56:33;25.30;49.60
70068;DHT22;57425;51.616;6.680;2023-06-10T01:58:58;25.30;49.50
70068;DHT22;57425;51.616;6.680;2023-06-10T02:01:25;25.40;62.20
70068;DHT22;57425;51.616;6.680;2023-06-10T02:03:51;25.30;65.50
70068;DHT22;57425;51.616;6.680;2023-06-10T02:06:16;25.20;49.60
70068;DHT22;57425;51.616;6.680;2023-06-10T02:08:42;25.20;49.60
70068;DHT22;57425;51.616;6.680;2023-06-10T02:11:08;25.20;49.60
70068;DHT22;57425;51.616;6.680;2023-06-10T02:13:34;25.20;49.60
70068;DHT22;57425;51.616;6.680;2023-06-10T02:16:00;25.10;49.60
70068;DHT22;57425;51.616;6.680;2023-06-10T02:18:26;25.10;49.60
70068;DHT22;57425;51.616;6.680;2023-06-10T02:20:53;25.10;49.60
70068;DHT22;57425;51.616;6.680;2023-06-10T02:23:19;25.10;49.70
70068;DHT22;57425;51.616;6.680;2023-06-10T02:25:44;25.00;49.50
70068;DHT22;57425;51.616;6.680;2023-06-10T02:28:10;25.00;49.50
70068;DHT22;57425;51.616;6.680;2023-06-10T02:30:41;25.00;49.50
70068;DHT22;57425;51.616;6.680;2023-06-10T02:33:07;25.00;49.40
70068;DHT22;57425;51.616;6.680;2023-06-10T02:35:40;25.00;49.50
70068;DHT22;57425;51.616;6.680;2023-06-10T02:38:06;25.00;49.50
70068;DHT22;57425;51.616;6.680;2023-06-10T02:40:32;25.00;49.50
70068;DHT22;57425;51.616;6.680;2023-06-10T02:42:58;24.90;49.40
70068;DHT22;57425;51.616;6.680;2023-06-10T02:45:24;24.90;49.60
70068;DHT22;57425;51.616;6.680;2023-06-10T02:47:50;24.90;49.60
70068;DHT22;57425;51.616;6.680;2023-06-10T02:50:15;24.90;49.50
70068;DHT22;57425;51.616;6.680;2023-06-10T02:52:41;24.90;49.50
70068;DHT22;57425;51.616;6.680;2023-06-10T02:55:07;24.80;49.50
70068;DHT22;57425;51.616;6.680;2023-06-10T02:57:33;24.80;49.60
70068;DHT22;57425;51.616;6.680;2023-06-10T02:59:58;24.80;49.60
70068;DHT22;57425;51.616;6.680;2023-06-10T03:02:25;24.80;49.60
70068;DHT22;57425;51.616;6.680;2023-06-10T03:04:56;24.80;50.20
70068;DHT22;57425;51.616;6.680;2023-06-10T03:07:22;24.70;49.50
70068;DHT22;57425;51.616;6.680;2023-06-10T03:09:48;24.70;49.60
70068;DHT22;57425;51.616;6.680;2023-06-10T03:12:14;24.70;49.60
70068;DHT22;57425;51.616;6.680;2023-06-10T03:14:41;24.70;49.60
70068;DHT22;57425;51.616;6.680;2023-06-10T03:17:06;24.70;49.60
70068;DHT22;57425;51.616;6.680;2023-06-10T03:19:34;24.60;49.60
70068;DHT22;57425;51.616;6.680;2023-06-10T03:22:10;24.60;49.60
70068;DHT22;57425;51.616;6.680;2023-06-10T03:24:36;24.60;49.60
70068;DHT22;57425;51.616;6.680;2023-06-10T03:27:12;24.60;49.70
70068;DHT22;57425;51.616;6.680;2023-06-10T03:29:39;24.60;49.60
70068;DHT22;57425;51.616;6.680;2023-06-10T03:32:05;24.60;49.70
70068;DHT22;57425;51.616;6.680;2023-06-10T03:34:31;24.60;49.70
70068;DHT22;57425;51.616;6.680;2023-06-10T03:36:57;24.50;49.70
70068;DHT22;57425;51.616;6.680;2023-06-10T03:39:22;24.50;49.70
70068;DHT22;57425;51.616;6.680;2023-06-10T03:41:49;24.50;49.70
70068;DHT22;57425;51.616;6.680;2023-06-10T03:44:15;24.40;49.70
70068;DHT22;57425;51.616;6.680;2023-06-10T03:46:40;24.40;49.70
70068;DHT22;57425;51.616;6.680;2023-06-10T03:49:06;24.40;49.80
70068;DHT22;57425;51.616;6.680;2023-06-10T03:51:32;24.40;49.70
70068;DHT22;57425;51.616;6.680;2023-06-10T03:53:57;24.40;49.70
70068;DHT22;57425;51.616;6.680;2023-06-10T03:56:23;24.40;49.70
70068;DHT22;57425;51.616;6.680;2023-06-10T03:58:48;24.30;49.70
70068;DHT22;57425;51.616;6.680;2023-06-10T04:01:14;24.30;49.70
70068;DHT22;57425;51.616;6.680;2023-06-10T04:03:40;24.30;49.70
70068;DHT22;57425;51.616;6.680;2023-06-10T04:06:07;24.30;49.80
70068;DHT22;57425;51.616;6.680;2023-06-10T04:08:33;24.30;49.80
70068;DHT22;57425;51.616;6.680;2023-06-10T04:10:59;24.30;49.80
70068;DHT22;57425;51.616;6.680;2023-06-10T04:13:24;24.20;49.70
70068;DHT22;57425;51.616;6.680;2023-06-10T04:15:50;24.20;49.70
70068;DHT22;57425;51.616;6.680;2023-06-10T04:18:16;24.20;49.70
70068;DHT22;57425;51.616;6.680;2023-06-10T04:20:42;24.20;49.80
70068;DHT22;57425;51.616;6.680;2023-06-10T04:23:07;24.20;49.80
70068;DHT22;57425;51.616;6.680;2023-06-10T04:25:33;24.20;50.40
70068;DHT22;57425;51.616;6.680;2023-06-10T04:27:59;24.20;49.80
70068;DHT22;57425;51.616;6.680;2023-06-10T04:30:24;24.10;49.80
70068;DHT22;57425;51.616;6.680;2023-06-10T04:32:50;24.10;49.70
70068;DHT22;57425;51.616;6.680;2023-06-10T04:35:16;24.10;49.80
70068;DHT22;57425;51.616;6.680;2023-06-10T04:37:42;24.10;49.90
70068;DHT22;57425;51.616;6.680;2023-06-10T04:40:08;24.10;49.90
70068;DHT22;57425;51.616;6.680;2023-06-10T04:42:35;24.10;50.00
70068;DHT22;57425;51.616;6.680;2023-06-10T04:45:01;24.10;50.00
70068;DHT22;57425;51.616;6.680;2023-06-10T04:47:27;24.00;50.00
70068;DHT22;57425;51.616;6.680;2023-06-10T04:49:53;24.00;50.00
70068;DHT22;57425;51.616;6.680;2023-06-10T04:52:19;24.00;50.00
70068;DHT22;57425;51.616;6.680;2023-06-10T04:54:45;24.00;50.00
70068;DHT22;57425;51.616;6.680;2023-06-10T04:57:10;24.00;50.20
70068;DHT22;57425;51.616;6.680;2023-06-10T04:59:37;24.00;50.20
70068;DHT22;57425;51.616;6.680;2023-06-10T05:02:06;24.00;50.20
70068;DHT22;57425;51.616;6.680;2023-06-10T05:04:32;24.00;50.20
70068;DHT22;57425;51.616;6.680;2023-06-10T05:06:58;23.90;50.20
70068;DHT22;57425;51.616;6.680;2023-06-10T05:09:23;23.90;50.30
70068;DHT22;57425;51.616;6.680;2023-06-10T05:11:49;23.90;50.30
70068;DHT22;57425;51.616;6.680;2023-06-10T05:14:14;23.90;50.30
70068;DHT22;57425;51.616;6.680;2023-06-10T05:16:42;23.90;50.40
70068;DHT22;57425;51.616;6.680;2023-06-10T05:19:08;23.90;50.40
70068;DHT22;57425;51.616;6.680;2023-06-10T05:21:34;23.90;50.40
70068;DHT22;57425;51.616;6.680;2023-06-10T05:24:00;23.90;50.40
70068;DHT22;57425;51.616;6.680;2023-06-10T05:26:25;23.90;50.40
70068;DHT22;57425;51.616;6.680;2023-06-10T05:28:51;23.80;50.40
70068;DHT22;57425;51.616;6.680;2023-06-10T05:31:17;23.90;50.40
70068;DHT22;57425;51.616;6.680;2023-06-10T05:33:43;23.80;50.40
70068;DHT22;57425;51.616;6.680;2023-06-10T05:36:09;23.90;50.50
70068;DHT22;57425;51.616;6.680;2023-06-10T05:38:34;23.80;50.50
70068;DHT22;57425;51.616;6.680;2023-06-10T05:41:00;23.80;50.50
70068;DHT22;57425;51.616;6.680;2023-06-10T05:43:26;23.80;50.50
70068;DHT22;57425;51.616;6.680;2023-06-10T05:45:51;23.80;50.50
70068;DHT22;57425;51.616;6.680;2023-06-10T05:48:17;23.80;50.50
70068;DHT22;57425;51.616;6.680;2023-06-10T05:50:45;23.80;50.50
70068;DHT22;57425;51.616;6.680;2023-06-10T05:53:16;23.80;50.50
70068;DHT22;57425;51.616;6.680;2023-06-10T05:55:45;23.70;50.40
70068;DHT22;57425;51.616;6.680;2023-06-10T05:58:12;23.80;50.70
70068;DHT22;57425;51.616;6.680;2023-06-10T06:00:38;23.70;50.60
70068;DHT22;57425;51.616;6.680;2023-06-10T06:03:06;23.80;50.70
70068;DHT22;57425;51.616;6.680;2023-06-10T06:05:33;23.80;50.70
70068;DHT22;57425;51.616;6.680;2023-06-10T06:08:01;23.80;50.70
70068;DHT22;57425;51.616;6.680;2023-06-10T06:10:27;23.70;50.70
70068;DHT22;57425;51.616;6.680;2023-06-10T06:12:52;23.70;50.80
70068;DHT22;57425;51.616;6.680;2023-06-10T06:15:18;23.70;50.80
70068;DHT22;57425;51.616;6.680;2023-06-10T06:17:44;23.70;50.80
70068;DHT22;57425;51.616;6.680;2023-06-10T06:20:10;23.80;50.90
70068;DHT22;57425;51.616;6.680;2023-06-10T06:22:35;23.70;50.70
70068;DHT22;57425;51.616;6.680;2023-06-10T06:25:01;23.70;50.70
70068;DHT22;57425;51.616;6.680;2023-06-10T06:27:27;23.80;51.00
70068;DHT22;57425;51.616;6.680;2023-06-10T06:29:53;23.80;51.10
70068;DHT22;57425;51.616;6.680;2023-06-10T06:32:18;23.70;51.10
70068;DHT22;57425;51.616;6.680;2023-06-10T06:34:44;23.70;51.00
70068;DHT22;57425;51.616;6.680;2023-06-10T06:37:10;23.80;51.00
70068;DHT22;57425;51.616;6.680;2023-06-10T06:39:35;23.80;50.90
70068;DHT22;57425;51.616;6.680;2023-06-10T06:42:01;23.90;50.90
70068;DHT22;57425;51.616;6.680;2023-06-10T06:44:27;23.90;50.80
70068;DHT22;57425;51.616;6.680;2023-06-10T06:46:52;23.90;50.90
70068;DHT22;57425;51.616;6.680;2023-06-10T06:49:18;24.00;50.90
70068;DHT22;57425;51.616;6.680;2023-06-10T06:51:43;24.00;50.80
70068;DHT22;57425;51.616;6.680;2023-06-10T06:54:09;24.00;50.70
70068;DHT22;57425;51.616;6.680;2023-06-10T06:56:35;24.00;50.80
70068;DHT22;57425;51.616;6.680;2023-06-10T06:59:00;24.00;50.80
70068;DHT22;57425;51.616;6.680;2023-06-10T07:01:26;24.10;50.90
70068;DHT22;57425;51.616;6.680;2023-06-10T07:03:51;24.10;50.90
70068;DHT22;57425;51.616;6.680;2023-06-10T07:06:17;24.10;51.10
70068;DHT22;57425;51.616;6.680;2023-06-10T07:08:42;24.10;51.10
70068;DHT22;57425;51.616;6.680;2023-06-10T07:11:08;24.10;51.10
70068;DHT22;57425;51.616;6.680;2023-06-10T07:13:34;24.10;51.00
70068;DHT22;57425;51.616;6.680;2023-06-10T07:15:59;24.10;51.20
70068;DHT22;57425;51.616;6.680;2023-06-10T07:18:25;24.20;51.90
70068;DHT22;57425;51.616;6.680;2023-06-10T07:20:50;24.20;52.00
70068;DHT22;57425;51.616;6.680;2023-06-10T07:23:16;24.20;51.50
70068;DHT22;57425;51.616;6.680;2023-06-10T07:25:42;24.20;51.60
70068;DHT22;57425;51.616;6.680;2023-06-10T07:28:07;24.20;51.70
70068;DHT22;57425;51.616;6.680;2023-06-10T07:30:33;24.20;51.70
70068;DHT22;57425;51.616;6.680;2023-06-10T07:32:58;24.20;51.70
70068;DHT22;57425;51.616;6.680;2023-06-10T07:35:24;24.20;51.80
70068;DHT22;57425;51.616;6.680;2023-06-10T07:37:50;24.20;51.70
70068;DHT22;57425;51.616;6.680;2023-06-10T07:40:16;24.20;51.70
70068;DHT22;57425;51.616;6.680;2023-06-10T07:42:41;24.30;51.80
70068;DHT22;57425;51.616;6.680;2023-06-10T07:45:07;24.30;51.80
70068;DHT22;57425;51.616;6.680;2023-06-10T07:47:34;24.30;51.70
70068;DHT22;57425;51.616;6.680;2023-06-10T07:49:59;24.30;51.70
70068;DHT22;57425;51.616;6.680;2023-06-10T07:52:25;24.30;51.60
70068;DHT22;57425;51.616;6.680;2023-06-10T07:54:51;24.30;51.80
70068;DHT22;57425;51.616;6.680;2023-06-10T07:57:17;24.40;51.80
70068;DHT22;57425;51.616;6.680;2023-06-10T07:59:43;24.40;51.80
70068;DHT22;57425;51.616;6.680;2023-06-10T08:02:09;24.40;51.80
70068;DHT22;57425;51.616;6.680;2023-06-10T08:04:35;24.40;51.80
70068;DHT22;57425;51.616;6.680;2023-06-10T08:07:01;24.40;51.70
70068;DHT22;57425;51.616;6.680;2023-06-10T08:09:27;24.40;51.70
70068;DHT22;57425;51.616;6.680;2023-06-10T08:11:53;24.40;51.70
70068;DHT22;57425;51.616;6.680;2023-06-10T08:14:19;24.40;51.80
70068;DHT22;57425;51.616;6.680;2023-06-10T08:16:45;24.50;51.70
70068;DHT22;57425;51.616;6.680;2023-06-10T08:19:11;24.50;51.60
70068;DHT22;57425;51.616;6.680;2023-06-10T08:21:36;24.50;51.60
70068;DHT22;57425;51.616;6.680;2023-06-10T08:24:06;24.60;51.80
70068;DHT22;57425;51.616;6.680;2023-06-10T08:26:32;24.50;51.70
70068;DHT22;57425;51.616;6.680;2023-06-10T08:28:58;24.60;51.70
70068;DHT22;57425;51.616;6.680;2023-06-10T08:31:23;24.60;51.70
70068;DHT22;57425;51.616;6.680;2023-06-10T08:33:49;24.60;51.90
70068;DHT22;57425;51.616;6.680;2023-06-10T08:36:15;24.60;51.80
70068;DHT22;57425;51.616;6.680;2023-06-10T08:38:40;24.70;51.80
70068;DHT22;57425;51.616;6.680;2023-06-10T08:41:06;24.70;51.80
70068;DHT22;57425;51.616;6.680;2023-06-10T08:43:37;24.80;52.40
70068;DHT22;57425;51.616;6.680;2023-06-10T08:46:03;24.80;51.70
70068;DHT22;57425;51.616;6.680;2023-06-10T08:48:29;24.80;51.70
70068;DHT22;57425;51.616;6.680;2023-06-10T08:50:59;24.90;51.60
70068;DHT22;57425;51.616;6.680;2023-06-10T08:53:26;24.90;51.70
70068;DHT22;57425;51.616;6.680;2023-06-10T08:55:53;24.90;51.50
70068;DHT22;57425;51.616;6.680;2023-06-10T08:58:19;25.00;51.40
70068;DHT22;57425;51.616;6.680;2023-06-10T09:00:45;25.00;51.30
70068;DHT22;57425;51.616;6.680;2023-06-10T09:03:11;25.00;51.30
70068;DHT22;57425;51.616;6.680;2023-06-10T09:05:38;25.10;51.20
70068;DHT22;57425;51.616;6.680;2023-06-10T09:08:06;25.10;51.80
70068;DHT22;57425;51.616;6.680;2023-06-10T09:10:33;25.10;51.60
70068;DHT22;57425;51.616;6.680;2023-06-10T09:12:59;25.10;51.00
70068;DHT22;57425;51.616;6.680;2023-06-10T09:15:24;25.10;50.90
70068;DHT22;57425;51.616;6.680;2023-06-10T09:17:50;25.20;50.80
70068;DHT22;57425;51.616;6.680;2023-06-10T09:20:17;25.20;50.70
70068;DHT22;57425;51.616;6.680;2023-06-10T09:22:42;25.20;50.50
70068;DHT22;57425;51.616;6.680;2023-06-10T09:25:12;25.30;50.70
70068;DHT22;57425;51.616;6.680;2023-06-10T09:27:49;25.30;50.70
70068;DHT22;57425;51.616;6.680;2023-06-10T09:30:29;25.30;50.50
70068;DHT22;57425;51.616;6.680;2023-06-10T09:32:56;25.40;50.70
70068;DHT22;57425;51.616;6.680;2023-06-10T09:35:26;25.40;50.80
70068;DHT22;57425;51.616;6.680;2023-06-10T09:37:57;25.40;50.50
70068;DHT22;57425;51.616;6.680;2023-06-10T09:40:23;25.40;50.90
70068;DHT22;57425;51.616;6.680;2023-06-10T09:42:54;25.40;50.40
70068;DHT22;57425;51.616;6.680;2023-06-10T09:45:21;25.50;50.10
70068;DHT22;57425;51.616;6.680;2023-06-10T09:47:47;25.50;50.20
70068;DHT22;57425;51.616;6.680;2023-06-10T09:50:17;25.50;50.10
70068;DHT22;57425;51.616;6.680;2023-06-10T09:52:42;25.50;50.00
70068;DHT22;57425;51.616;6.680;2023-06-10T09:55:10;25.60;50.00
70068;DHT22;57425;51.616;6.680;2023-06-10T09:57:36;25.60;49.80
70068;DHT22;57425;51.616;6.680;2023-06-10T10:00:09;25.60;49.30
70068;DHT22;57425;51.616;6.680;2023-06-10T10:03:01;25.60;49.20
70068;DHT22;57425;51.616;6.680;2023-06-10T10:05:27;25.70;49.20
70068;DHT22;57425;51.616;6.680;2023-06-10T10:07:53;25.70;49.10
70068;DHT22;57425;51.616;6.680;2023-06-10T10:10:20;25.70;48.80
70068;DHT22;57425;51.616;6.680;2023-06-10T10:12:47;25.80;48.70
70068;DHT22;57425;51.616;6.680;2023-06-10T10:15:16;25.80;49.30
70068;DHT22;57425;51.616;6.680;2023-06-10T10:17:51;25.80;48.50
70068;DHT22;57425;51.616;6.680;2023-06-10T10:20:22;25.90;48.50
70068;DHT22;57425;51.616;6.680;2023-06-10T10:22:51;25.90;48.40
70068;DHT22;57425;51.616;6.680;2023-06-10T10:25:25;25.90;48.10
70068;DHT22;57425;51.616;6.680;2023-06-10T10:27:58;25.90;47.60
70068;DHT22;57425;51.616;6.680;2023-06-10T10:30:25;26.00;48.30
70068;DHT22;57425;51.616;6.680;2023-06-10T10:33:03;26.00;47.50
70068;DHT22;57425;51.616;6.680;2023-06-10T10:35:31;26.10;47.20
70068;DHT22;57425;51.616;6.680;2023-06-10T10:37:58;26.10;47.20
70068;DHT22;57425;51.616;6.680;2023-06-10T10:40:25;26.10;47.10
70068;DHT22;57425;51.616;6.680;2023-06-10T10:42:56;26.20;47.10
70068;DHT22;57425;51.616;6.680;2023-06-10T10:45:22;26.20;47.10
70068;DHT22;57425;51.616;6.680;2023-06-10T10:47:52;26.20;47.40
70068;DHT22;57425;51.616;6.680;2023-06-10T10:50:19;26.30;47.10
70068;DHT22;57425;51.616;6.680;2023-06-10T10:52:55;26.30;47.40
70068;DHT22;57425;51.616;6.680;2023-06-10T10:55:22;26.30;47.20
70068;DHT22;57425;51.616;6.680;2023-06-10T10:57:56;26.30;47.80
70068;DHT22;57425;51.616;6.680;2023-06-10T11:00:29;26.30;47.00
70068;DHT22;57425;51.616;6.680;2023-06-10T11:05:44;26.40;47.30
70068;DHT22;57425;51.616;6.680;2023-06-10T11:08:13;26.40;47.50
70068;DHT22;57425;51.616;6.680;2023-06-10T11:10:41;26.50;47.30
70068;DHT22;57425;51.616;6.680;2023-06-10T11:13:13;26.50;47.90
70068;DHT22;57425;51.616;6.680;2023-06-10T11:15:49;26.50;47.20
70068;DHT22;57425;51.616;6.680;2023-06-10T11:18:24;26.50;46.90
70068;DHT22;57425;51.616;6.680;2023-06-10T11:29:06;26.70;46.80
70068;DHT22;57425;51.616;6.680;2023-06-10T11:31:39;26.70;46.60
70068;DHT22;57425;51.616;6.680;2023-06-10T11:34:06;26.70;46.70
70068;DHT22;57425;51.616;6.680;2023-06-10T11:36:33;26.70;46.70
70068;DHT22;57425;51.616;6.680;2023-06-10T11:39:02;26.90;46.70
70068;DHT22;57425;51.616;6.680;2023-06-10T11:41:30;26.80;46.80
70068;DHT22;57425;51.616;6.680;2023-06-10T11:43:58;26.80;46.30
70068;DHT22;57425;51.616;6.680;2023-06-10T11:46:26;26.80;46.20
70068;DHT22;57425;51.616;6.680;2023-06-10T11:48:59;26.90;46.40
70068;DHT22;57425;51.616;6.680;2023-06-10T11:51:27;26.90;46.20
70068;DHT22;57425;51.616;6.680;2023-06-10T11:53:54;26.90;46.30
70068;DHT22;57425;51.616;6.680;2023-06-10T11:56:21;26.90;46.10
70068;DHT22;57425;51.616;6.680;2023-06-10T11:59:02;26.90;45.90
70068;DHT22;57425;51.616;6.680;2023-06-10T12:01:33;27.00;45.90
70068;DHT22;57425;51.616;6.680;2023-06-10T12:06:27;27.00;46.50
70068;DHT22;57425;51.616;6.680;2023-06-10T12:08:54;27.00;45.50
70068;DHT22;57425;51.616;6.680;2023-06-10T12:11:20;27.20;46.30
70068;DHT22;57425;51.616;6.680;2023-06-10T12:13:48;27.10;46.00
70068;DHT22;57425;51.616;6.680;2023-06-10T12:16:14;27.10;45.80
70068;DHT22;57425;51.616;6.680;2023-06-10T12:18:41;27.20;45.70
70068;DHT22;57425;51.616;6.680;2023-06-10T12:24:09;27.30;45.60
70068;DHT22;57425;51.616;6.680;2023-06-10T12:26:42;27.30;45.70
70068;DHT22;57425;51.616;6.680;2023-06-10T12:29:19;27.30;45.90
70068;DHT22;57425;51.616;6.680;2023-06-10T12:32:02;27.30;45.90
70068;DHT22;57425;51.616;6.680;2023-06-10T12:34:36;27.30;45.90
70068;DHT22;57425;51.616;6.680;2023-06-10T12:37:05;27.30;45.30
70068;DHT22;57425;51.616;6.680;2023-06-10T12:39:32;27.40;45.70
70068;DHT22;57425;51.616;6.680;2023-06-10T12:41:59;27.40;45.30
70068;DHT22;57425;51.616;6.680;2023-06-10T12:44:34;27.40;45.30
70068;DHT22;57425;51.616;6.680;2023-06-10T12:47:06;27.40;45.80
70068;DHT22;57425;51.616;6.680;2023-06-10T12:49:32;27.50;45.50
70068;DHT22;57425;51.616;6.680;2023-06-10T12:51:57;27.40;45.30
70068;DHT22;57425;51.616;6.680;2023-06-10T12:54:23;27.50;45.60
70068;DHT22;57425;51.616;6.680;2023-06-10T12:56:49;27.50;45.50
70068;DHT22;57425;51.616;6.680;2023-06-10T12:59:14;27.50;45.20
70068;DHT22;57425;51.616;6.680;2023-06-10T13:01:40;27.60;45.30
70068;DHT22;57425;51.616;6.680;2023-06-10T13:04:06;27.60;45.20
70068;DHT22;57425;51.616;6.680;2023-06-10T13:06:33;27.60;45.10
70068;DHT22;57425;51.616;6.680;2023-06-10T13:09:02;27.60;45.10
70068;DHT22;57425;51.616;6.680;2023-06-10T13:11:28;27.60;44.80
70068;DHT22;57425;51.616;6.680;2023-06-10T13:13:54;27.70;44.80
70068;DHT22;57425;51.616;6.680;2023-06-10T13:16:19;27.70;44.50
70068;DHT22;57425;51.616;6.680;2023-06-10T13:18:45;27.70;44.40
70068;DHT22;57425;51.616;6.680;2023-06-10T13:21:11;27.70;44.60
70068;DHT22;57425;51.616;6.680;2023-06-10T13:23:37;27.70;44.40
70068;DHT22;57425;51.616;6.680;2023-06-10T13:26:02;27.80;44.40
70068;DHT22;57425;51.616;6.680;2023-06-10T13:28:28;27.80;44.20
70068;DHT22;57425;51.616;6.680;2023-06-10T13:30:54;27.80;44.20
70068;DHT22;57425;51.616;6.680;2023-06-10T13:33:19;27.80;44.20
70068;DHT22;57425;51.616;6.680;2023-06-10T13:35:46;27.80;44.10
70068;DHT22;57425;51.616;6.680;2023-06-10T13:38:12;27.90;44.40
70068;DHT22;57425;51.616;6.680;2023-06-10T13:40:37;27.90;44.20
70068;DHT22;57425;51.616;6.680;2023-06-10T13:43:03;27.90;44.40
70068;DHT22;57425;51.616;6.680;2023-06-10T13:45:29;27.90;44.70
70068;DHT22;57425;51.616;6.680;2023-06-10T13:47:54;27.90;44.60
70068;DHT22;57425;51.616;6.680;2023-06-10T13:50:20;27.90;44.80
70068;DHT22;57425;51.616;6.680;2023-06-10T13:52:45;28.00;44.40
70068;DHT22;57425;51.616;6.680;2023-06-10T13:55:11;28.00;44.10
70068;DHT22;57425;51.616;6.680;2023-06-10T13:57:37;28.00;43.90
70068;DHT22;57425;51.616;6.680;2023-06-10T14:00:02;28.10;43.70
70068;DHT22;57425;51.616;6.680;2023-06-10T14:02:28;28.10;44.00
70068;DHT22;57425;51.616;6.680;2023-06-10T14:04:54;28.10;44.20
70068;DHT22;57425;51.616;6.680;2023-06-10T14:07:19;28.10;44.30
70068;DHT22;57425;51.616;6.680;2023-06-10T14:09:45;28.10;44.10
70068;DHT22;57425;51.616;6.680;2023-06-10T14:12:11;28.10;43.90
70068;DHT22;57425;51.616;6.680;2023-06-10T14:14:36;28.20;44.10
70068;DHT22;57425;51.616;6.680;2023-06-10T14:17:02;28.20;44.20
70068;DHT22;57425;51.616;6.680;2023-06-10T14:19:29;28.20;43.90
70068;DHT22;57425;51.616;6.680;2023-06-10T14:21:55;28.20;44.00
70068;DHT22;57425;51.616;6.680;2023-06-10T14:24:21;28.20;44.00
70068;DHT22;57425;51.616;6.680;2023-06-10T14:26:47;28.20;43.60
70068;DHT22;57425;51.616;6.680;2023-06-10T14:29:13;28.30;43.80
70068;DHT22;57425;51.616;6.680;2023-06-10T14:31:42;28.30;43.70
70068;DHT22;57425;51.616;6.680;2023-06-10T14:34:08;28.30;44.20
70068;DHT22;57425;51.616;6.680;2023-06-10T14:36:34;28.30;43.40
70068;DHT22;57425;51.616;6.680;2023-06-10T14:39:00;28.30;43.70
70068;DHT22;57425;51.616;6.680;2023-06-10T14:41:26;28.40;44.40
70068;DHT22;57425;51.616;6.680;2023-06-10T14:43:52;28.40;43.70
70068;DHT22;57425;51.616;6.680;2023-06-10T14:46:17;28.40;43.90
70068;DHT22;57425;51.616;6.680;2023-06-10T14:48:46;28.40;43.80
70068;DHT22;57425;51.616;6.680;2023-06-10T14:51:11;28.40;43.80
70068;DHT22;57425;51.616;6.680;2023-06-10T14:53:37;28.40;43.50
70068;DHT22;57425;51.616;6.680;2023-06-10T14:56:03;28.40;43.60
70068;DHT22;57425;51.616;6.680;2023-06-10T14:58:28;28.50;43.60
70068;DHT22;57425;51.616;6.680;2023-06-10T15:00:54;28.50;43.70
70068;DHT22;57425;51.616;6.680;2023-06-10T15:03:19;28.50;43.70
70068;DHT22;57425;51.616;6.680;2023-06-10T15:05:45;28.50;43.60
70068;DHT22;57425;51.616;6.680;2023-06-10T15:08:11;28.50;43.20
70068;DHT22;57425;51.616;6.680;2023-06-10T15:10:37;28.60;43.60
70068;DHT22;57425;51.616;6.680;2023-06-10T15:13:02;28.60;43.40
70068;DHT22;57425;51.616;6.680;2023-06-10T15:15:28;28.60;43.70
70068;DHT22;57425;51.616;6.680;2023-06-10T15:17:54;28.60;43.40
70068;DHT22;57425;51.616;6.680;2023-06-10T15:20:19;28.60;43.20
70068;DHT22;57425;51.616;6.680;2023-06-10T15:22:45;28.60;43.90
70068;DHT22;57425;51.616;6.680;2023-06-10T15:25:11;28.60;43.80
70068;DHT22;57425;51.616;6.680;2023-06-10T15:27:36;28.70;44.10
70068;DHT22;57425;51.616;6.680;2023-06-10T15:30:02;28.70;43.50
70068;DHT22;57425;51.616;6.680;2023-06-10T15:32:28;28.70;44.00
70068;DHT22;57425;51.616;6.680;2023-06-10T15:34:54;28.70;43.80
70068;DHT22;57425;51.616;6.680;2023-06-10T15:37:20;28.70;43.70
70068;DHT22;57425;51.616;6.680;2023-06-10T15:39:46;28.70;43.90
70068;DHT22;57425;51.616;6.680;2023-06-10T15:42:12;28.70;43.80
70068;DHT22;57425;51.616;6.680;2023-06-10T15:44:38;28.80;44.60
70068;DHT22;57425;51.616;6.680;2023-06-10T15:47:03;28.80;44.10
70068;DHT22;57425;51.616;6.680;2023-06-10T15:49:29;28.80;44.10